• Join FlightAware (Why Join?)
  • Login
  • US Flag 
12:11PM EST


 

Airport Tracker/Info


-or-


 

Live Flight TrackerFlight Track Log ✈ UAL1177 ✈ 25-May-2013 ✈ KEWR - KBOS

Flight Track Log - Related Links

Times and Time Zones

All times are in EDT time to prevent confusion due to time zone crossing. See the UAL1177 flight status page for this flight to view local times or setup timezone preferences in your user account.

Time Position Orientation Groundspeed Altitude Reporting Facility
EDT Latitude Longitude Course Direction KTS MPH feet Rate Location/Type
11:05AM 40.7167 -74.1500 56° Northeast 175 201 1,700  Level New York TRACON
11:06AM 40.7500 -74.1000 49° Northeast 197 227 4,700 2,640 Climbing New York TRACON
11:08AM 40.9239 -73.8099 47° Northeast  Level FlightAware Approximate
11:08AM 40.7836 -73.9394 74° East 273 314 9,900  Level Boston Center
11:09AM 40.9859 -73.7180 51° Northeast  Level FlightAware Approximate
11:09AM 40.8450 -73.8586 45° Northeast 264 304 11,600  Level Boston Center
11:10AM 41.0438 -73.6215 51° Northeast  Level FlightAware Approximate
11:10AM 40.9128 -73.7722 44° Northeast 299 344 14,100  Level Boston Center
11:11AM 41.1081 -73.5338 56° Northeast  Level FlightAware Approximate
11:11AM 40.9806 -73.6772 47° Northeast 330 380 17,100  Level Boston Center
11:12AM 41.0419 -73.5931 46° Northeast 346 398 19,000 1,140 Climbing Boston Center
11:13AM 41.1222 -73.4953 43° Northeast 346 398 19,400 960 Climbing Boston Center
11:14AM 41.1856 -73.4028 48° Northeast 346 398 21,000 780 Climbing Boston Center
11:15AM 41.2342 -73.2958 59° Northeast 341 392 21,000  Level Boston Center
11:16AM 41.2683 -73.1747 69° East 330 380 21,000 -60 Level Boston Center
11:17AM 41.2983 -73.0617 71° East 343 395 20,900  Descending Boston Center
11:18AM 41.3322 -72.9406 70° East 348 400 21,000  Climbing Boston Center
11:19AM 41.3661 -72.8136 70° East 348 400 21,000 -60 Level Boston Center
11:20AM 41.3956 -72.6919 72° East 348 400 20,900  Descending Boston Center
11:21AM 41.4292 -72.5675 70° East 348 400 21,000  Climbing Boston Center
11:22AM 41.4625 -72.4428 70° East 348 400 21,000  Level Boston Center
11:23AM 41.4958 -72.3153 71° East 348 400 21,000  Level Boston Center
11:24AM 41.5269 -72.1961 71° East 348 400 21,000 -480 Level Boston Center
11:25AM 41.5600 -72.0711 70° East 348 400 20,100 -1,500 Descending Boston Center
11:26AM 41.5947 -71.9433 70° East 353 406 17,700 -2,280 Descending Boston Center
11:27AM 41.6356 -71.7789 72° East 353 406 15,200 -2,100 Descending Boston Center
11:28AM 41.6642 -71.6703 71° East 347 399 13,500 -1,740 Descending Boston Center
11:29AM 41.6967 -71.5392 72° East 347 399 11,800 -1,260 Descending Boston Center
11:30AM 41.7269 -71.4275 70° East 334 384 11,000 -420 Descending Boston Center
11:31AM 41.7719 -71.3378 56° Northeast 293 337 11,000  Level Boston Center
11:32AM 41.8253 -71.2700 43° Northeast 265 305 11,000 -120 Level Boston Center
11:33AM 41.8875 -71.2297 26° Northeast 250 288 10,800 -1,200 Descending Boston Center
11:34AM 41.9622 -71.1978 18° North 268 308 8,600 -1,800 Descending Boston Center
11:35AM 42.0347 -71.1628 20° North 274 315 7,300 -1,380 Descending Boston Center
11:36AM 42.1031 -71.1306 19° North 263 303 5,900 -1,560 Descending Boston Center
11:37AM 42.1633 -71.1014 20° North 240 276 4,200 -1,500 Descending Boston Center
11:38AM 42.2150 -71.0750 21° North 203 234 3,000 -1,200 Descending Boston Center